sensor_id;sensor_type;location;lat;lon;timestamp;temperature;humidity
59881;DHT22;45751;51.380;10.326;2024-01-30T00:00:09;6.40;92.10
59881;DHT22;45751;51.380;10.326;2024-01-30T00:02:37;6.40;92.00
59881;DHT22;45751;51.380;10.326;2024-01-30T00:05:03;6.40;92.30
59881;DHT22;45751;51.380;10.326;2024-01-30T00:07:29;6.40;92.30
59881;DHT22;45751;51.380;10.326;2024-01-30T00:09:54;6.40;92.50
59881;DHT22;45751;51.380;10.326;2024-01-30T00:12:20;6.50;92.50
59881;DHT22;45751;51.380;10.326;2024-01-30T00:14:46;6.50;92.40
59881;DHT22;45751;51.380;10.326;2024-01-30T00:17:12;6.60;92.30
59881;DHT22;45751;51.380;10.326;2024-01-30T00:19:37;6.50;92.10
59881;DHT22;45751;51.380;10.326;2024-01-30T00:22:03;6.50;92.00
59881;DHT22;45751;51.380;10.326;2024-01-30T00:24:29;6.50;91.90
59881;DHT22;45751;51.380;10.326;2024-01-30T00:26:55;6.50;91.90
59881;DHT22;45751;51.380;10.326;2024-01-30T00:29:21;6.50;91.90
59881;DHT22;45751;51.380;10.326;2024-01-30T00:31:48;6.50;92.00
59881;DHT22;45751;51.380;10.326;2024-01-30T00:34:14;6.50;92.40
59881;DHT22;45751;51.380;10.326;2024-01-30T00:36:39;6.40;92.30
59881;DHT22;45751;51.380;10.326;2024-01-30T00:39:05;6.50;92.50
59881;DHT22;45751;51.380;10.326;2024-01-30T00:41:33;6.50;92.40
59881;DHT22;45751;51.380;10.326;2024-01-30T00:43:59;6.50;92.20
59881;DHT22;45751;51.380;10.326;2024-01-30T00:46:25;6.60;92.10
59881;DHT22;45751;51.380;10.326;2024-01-30T00:48:50;6.40;92.00
59881;DHT22;45751;51.380;10.326;2024-01-30T00:51:16;6.40;91.80
59881;DHT22;45751;51.380;10.326;2024-01-30T00:53:42;6.40;91.80
59881;DHT22;45751;51.380;10.326;2024-01-30T00:56:07;6.40;91.80
59881;DHT22;45751;51.380;10.326;2024-01-30T00:58:33;6.40;91.90
59881;DHT22;45751;51.380;10.326;2024-01-30T01:00:59;6.40;91.90
59881;DHT22;45751;51.380;10.326;2024-01-30T01:03:25;6.30;92.00
59881;DHT22;45751;51.380;10.326;2024-01-30T01:05:51;6.30;92.30
59881;DHT22;45751;51.380;10.326;2024-01-30T01:08:16;6.30;92.40
59881;DHT22;45751;51.380;10.326;2024-01-30T01:10:42;6.40;92.40
59881;DHT22;45751;51.380;10.326;2024-01-30T01:13:07;6.40;92.50
59881;DHT22;45751;51.380;10.326;2024-01-30T01:15:33;6.40;92.50
59881;DHT22;45751;51.380;10.326;2024-01-30T01:17:59;6.40;92.40
59881;DHT22;45751;51.380;10.326;2024-01-30T01:20:25;6.50;92.40
59881;DHT22;45751;51.380;10.326;2024-01-30T01:22:50;6.40;92.60
59881;DHT22;45751;51.380;10.326;2024-01-30T01:25:18;6.50;92.50
59881;DHT22;45751;51.380;10.326;2024-01-30T01:27:43;6.60;92.60
59881;DHT22;45751;51.380;10.326;2024-01-30T01:30:16;6.50;92.50
59881;DHT22;45751;51.380;10.326;2024-01-30T01:32:48;6.50;92.40
59881;DHT22;45751;51.380;10.326;2024-01-30T01:35:21;6.30;92.30
59881;DHT22;45751;51.380;10.326;2024-01-30T01:37:48;6.50;92.20
59881;DHT22;45751;51.380;10.326;2024-01-30T01:40:22;6.50;92.10
59881;DHT22;45751;51.380;10.326;2024-01-30T01:42:49;6.50;92.00
59881;DHT22;45751;51.380;10.326;2024-01-30T01:45:14;6.40;91.90
59881;DHT22;45751;51.380;10.326;2024-01-30T01:47:41;6.40;92.10
59881;DHT22;45751;51.380;10.326;2024-01-30T01:50:07;6.40;92.00
59881;DHT22;45751;51.380;10.326;2024-01-30T01:52:33;6.30;91.90
59881;DHT22;45751;51.380;10.326;2024-01-30T01:55:00;6.20;91.90
59881;DHT22;45751;51.380;10.326;2024-01-30T01:57:26;6.20;91.90
59881;DHT22;45751;51.380;10.326;2024-01-30T01:59:52;6.20;92.10
59881;DHT22;45751;51.380;10.326;2024-01-30T02:02:19;6.10;92.20
59881;DHT22;45751;51.380;10.326;2024-01-30T02:04:45;6.10;92.30
59881;DHT22;45751;51.380;10.326;2024-01-30T02:07:11;6.00;92.30
59881;DHT22;45751;51.380;10.326;2024-01-30T02:09:36;6.00;92.30
59881;DHT22;45751;51.380;10.326;2024-01-30T02:12:02;5.90;92.40
59881;DHT22;45751;51.380;10.326;2024-01-30T02:14:28;5.90;92.60
59881;DHT22;45751;51.380;10.326;2024-01-30T02:16:54;5.90;92.70
59881;DHT22;45751;51.380;10.326;2024-01-30T02:19:20;5.90;93.00
59881;DHT22;45751;51.380;10.326;2024-01-30T02:21:46;5.90;93.00
59881;DHT22;45751;51.380;10.326;2024-01-30T02:24:12;5.80;93.00
59881;DHT22;45751;51.380;10.326;2024-01-30T02:26:37;5.90;93.00
59881;DHT22;45751;51.380;10.326;2024-01-30T02:29:03;5.90;93.00
59881;DHT22;45751;51.380;10.326;2024-01-30T02:31:29;5.90;93.00
59881;DHT22;45751;51.380;10.326;2024-01-30T02:33:54;5.90;93.00
59881;DHT22;45751;51.380;10.326;2024-01-30T02:36:20;5.90;93.00
59881;DHT22;45751;51.380;10.326;2024-01-30T02:38:46;5.80;93.00
59881;DHT22;45751;51.380;10.326;2024-01-30T02:41:12;5.80;93.00
59881;DHT22;45751;51.380;10.326;2024-01-30T02:43:37;5.80;93.10
59881;DHT22;45751;51.380;10.326;2024-01-30T02:46:03;5.70;93.10
59881;DHT22;45751;51.380;10.326;2024-01-30T02:48:29;5.70;93.10
59881;DHT22;45751;51.380;10.326;2024-01-30T02:50:55;5.70;93.20
59881;DHT22;45751;51.380;10.326;2024-01-30T02:53:20;5.60;93.30
59881;DHT22;45751;51.380;10.326;2024-01-30T02:55:46;5.60;93.40
59881;DHT22;45751;51.380;10.326;2024-01-30T02:58:12;5.60;93.50
59881;DHT22;45751;51.380;10.326;2024-01-30T03:00:37;5.50;93.40
59881;DHT22;45751;51.380;10.326;2024-01-30T03:03:03;5.50;93.60
59881;DHT22;45751;51.380;10.326;2024-01-30T03:05:29;5.50;93.60
59881;DHT22;45751;51.380;10.326;2024-01-30T03:07:55;5.40;93.60
59881;DHT22;45751;51.380;10.326;2024-01-30T03:10:21;5.40;93.60
59881;DHT22;45751;51.380;10.326;2024-01-30T03:12:46;5.40;93.70
59881;DHT22;45751;51.380;10.326;2024-01-30T03:15:12;5.40;93.70
59881;DHT22;45751;51.380;10.326;2024-01-30T03:17:38;5.40;93.70
59881;DHT22;45751;51.380;10.326;2024-01-30T03:20:04;5.40;93.70
59881;DHT22;45751;51.380;10.326;2024-01-30T03:22:31;5.30;93.60
59881;DHT22;45751;51.380;10.326;2024-01-30T03:24:57;5.30;93.60
59881;DHT22;45751;51.380;10.326;2024-01-30T03:27:22;5.30;93.50
59881;DHT22;45751;51.380;10.326;2024-01-30T03:29:48;5.30;93.50
59881;DHT22;45751;51.380;10.326;2024-01-30T03:32:14;5.30;93.50
59881;DHT22;45751;51.380;10.326;2024-01-30T03:34:39;5.30;93.50
59881;DHT22;45751;51.380;10.326;2024-01-30T03:37:05;5.20;93.50
59881;DHT22;45751;51.380;10.326;2024-01-30T03:39:31;5.00;93.50
59881;DHT22;45751;51.380;10.326;2024-01-30T03:41:56;5.20;93.50
59881;DHT22;45751;51.380;10.326;2024-01-30T03:44:22;5.10;93.50
59881;DHT22;45751;51.380;10.326;2024-01-30T03:46:48;5.10;93.50
59881;DHT22;45751;51.380;10.326;2024-01-30T03:49:13;5.10;93.60
59881;DHT22;45751;51.380;10.326;2024-01-30T03:51:39;5.10;93.60
59881;DHT22;45751;51.380;10.326;2024-01-30T03:54:05;5.10;93.70
59881;DHT22;45751;51.380;10.326;2024-01-30T03:56:31;5.00;93.60
59881;DHT22;45751;51.380;10.326;2024-01-30T03:58:56;4.90;93.60
59881;DHT22;45751;51.380;10.326;2024-01-30T04:01:22;5.00;93.60
59881;DHT22;45751;51.380;10.326;2024-01-30T04:03:48;4.90;93.70
59881;DHT22;45751;51.380;10.326;2024-01-30T04:06:13;4.90;93.80
59881;DHT22;45751;51.380;10.326;2024-01-30T04:08:39;4.90;93.80
59881;DHT22;45751;51.380;10.326;2024-01-30T04:11:05;4.90;93.90
59881;DHT22;45751;51.380;10.326;2024-01-30T04:13:34;5.00;93.80
59881;DHT22;45751;51.380;10.326;2024-01-30T04:16:01;4.80;93.80
59881;DHT22;45751;51.380;10.326;2024-01-30T04:18:28;4.80;93.80
59881;DHT22;45751;51.380;10.326;2024-01-30T04:20:54;4.80;93.90
59881;DHT22;45751;51.380;10.326;2024-01-30T04:23:19;4.80;93.90
59881;DHT22;45751;51.380;10.326;2024-01-30T04:25:45;4.80;94.00
59881;DHT22;45751;51.380;10.326;2024-01-30T04:28:11;4.80;94.00
59881;DHT22;45751;51.380;10.326;2024-01-30T04:30:39;4.70;93.90
59881;DHT22;45751;51.380;10.326;2024-01-30T04:33:05;4.80;93.90
59881;DHT22;45751;51.380;10.326;2024-01-30T04:35:31;4.70;93.90
59881;DHT22;45751;51.380;10.326;2024-01-30T04:37:57;4.70;93.90
59881;DHT22;45751;51.380;10.326;2024-01-30T04:40:23;4.70;93.80
59881;DHT22;45751;51.380;10.326;2024-01-30T04:42:48;4.70;93.90
59881;DHT22;45751;51.380;10.326;2024-01-30T04:45:14;4.60;93.90
59881;DHT22;45751;51.380;10.326;2024-01-30T04:47:40;4.60;94.00
59881;DHT22;45751;51.380;10.326;2024-01-30T04:50:07;4.60;94.10
59881;DHT22;45751;51.380;10.326;2024-01-30T04:52:32;4.60;94.10
59881;DHT22;45751;51.380;10.326;2024-01-30T04:54:58;4.60;94.20
59881;DHT22;45751;51.380;10.326;2024-01-30T04:57:24;4.50;94.20
59881;DHT22;45751;51.380;10.326;2024-01-30T04:59:50;4.50;94.20
59881;DHT22;45751;51.380;10.326;2024-01-30T05:02:15;4.50;94.30
59881;DHT22;45751;51.380;10.326;2024-01-30T05:04:41;4.50;94.30
59881;DHT22;45751;51.380;10.326;2024-01-30T05:07:07;4.40;94.20
59881;DHT22;45751;51.380;10.326;2024-01-30T05:09:33;4.50;94.30
59881;DHT22;45751;51.380;10.326;2024-01-30T05:11:59;4.40;94.30
59881;DHT22;45751;51.380;10.326;2024-01-30T05:14:24;4.50;94.30
59881;DHT22;45751;51.380;10.326;2024-01-30T05:16:50;4.40;94.30
59881;DHT22;45751;51.380;10.326;2024-01-30T05:19:16;4.40;94.40
59881;DHT22;45751;51.380;10.326;2024-01-30T05:21:42;4.40;94.50
59881;DHT22;45751;51.380;10.326;2024-01-30T05:24:08;4.40;94.60
59881;DHT22;45751;51.380;10.326;2024-01-30T05:26:35;4.40;94.60
59881;DHT22;45751;51.380;10.326;2024-01-30T05:29:02;4.40;94.50
59881;DHT22;45751;51.380;10.326;2024-01-30T05:31:30;4.40;94.40
59881;DHT22;45751;51.380;10.326;2024-01-30T05:33:56;4.50;94.30
59881;DHT22;45751;51.380;10.326;2024-01-30T05:36:22;4.70;94.20
59881;DHT22;45751;51.380;10.326;2024-01-30T05:38:47;4.60;94.00
59881;DHT22;45751;51.380;10.326;2024-01-30T05:41:13;4.60;93.90
59881;DHT22;45751;51.380;10.326;2024-01-30T05:43:39;4.60;93.70
59881;DHT22;45751;51.380;10.326;2024-01-30T05:46:05;4.70;93.60
59881;DHT22;45751;51.380;10.326;2024-01-30T05:48:31;4.70;93.50
59881;DHT22;45751;51.380;10.326;2024-01-30T05:50:57;4.70;93.40
59881;DHT22;45751;51.380;10.326;2024-01-30T05:53:23;4.70;93.40
59881;DHT22;45751;51.380;10.326;2024-01-30T05:55:48;4.70;93.30
59881;DHT22;45751;51.380;10.326;2024-01-30T05:58:14;4.70;93.30
59881;DHT22;45751;51.380;10.326;2024-01-30T06:00:43;4.70;93.20
59881;DHT22;45751;51.380;10.326;2024-01-30T06:03:08;4.70;93.60
59881;DHT22;45751;51.380;10.326;2024-01-30T06:05:34;4.80;93.10
59881;DHT22;45751;51.380;10.326;2024-01-30T06:08:00;4.70;93.00
59881;DHT22;45751;51.380;10.326;2024-01-30T06:10:25;4.70;93.20
59881;DHT22;45751;51.380;10.326;2024-01-30T06:12:51;4.80;93.00
59881;DHT22;45751;51.380;10.326;2024-01-30T06:15:19;4.80;92.90
59881;DHT22;45751;51.380;10.326;2024-01-30T06:17:46;4.80;92.80
59881;DHT22;45751;51.380;10.326;2024-01-30T06:20:11;4.80;92.80
59881;DHT22;45751;51.380;10.326;2024-01-30T06:22:37;4.80;92.80
59881;DHT22;45751;51.380;10.326;2024-01-30T06:25:03;4.80;92.80
59881;DHT22;45751;51.380;10.326;2024-01-30T06:27:29;4.70;92.80
59881;DHT22;45751;51.380;10.326;2024-01-30T06:29:55;4.70;92.80
59881;DHT22;45751;51.380;10.326;2024-01-30T06:32:20;4.80;93.00
59881;DHT22;45751;51.380;10.326;2024-01-30T06:34:46;4.80;92.90
59881;DHT22;45751;51.380;10.326;2024-01-30T06:37:12;4.70;93.00
59881;DHT22;45751;51.380;10.326;2024-01-30T06:39:38;4.70;93.00
59881;DHT22;45751;51.380;10.326;2024-01-30T06:42:04;4.70;93.00
59881;DHT22;45751;51.380;10.326;2024-01-30T06:44:29;4.70;93.20
59881;DHT22;45751;51.380;10.326;2024-01-30T06:46:55;4.70;93.40
59881;DHT22;45751;51.380;10.326;2024-01-30T06:49:21;4.80;93.60
59881;DHT22;45751;51.380;10.326;2024-01-30T06:51:47;4.80;94.00
59881;DHT22;45751;51.380;10.326;2024-01-30T06:54:14;4.80;93.90
59881;DHT22;45751;51.380;10.326;2024-01-30T06:56:40;4.80;93.80
59881;DHT22;45751;51.380;10.326;2024-01-30T06:59:06;4.90;93.80
59881;DHT22;45751;51.380;10.326;2024-01-30T07:01:32;4.90;93.80
59881;DHT22;45751;51.380;10.326;2024-01-30T07:03:58;4.90;94.10
59881;DHT22;45751;51.380;10.326;2024-01-30T07:06:24;5.00;94.30
59881;DHT22;45751;51.380;10.326;2024-01-30T07:08:50;4.90;94.40
59881;DHT22;45751;51.380;10.326;2024-01-30T07:11:19;5.00;94.40
59881;DHT22;45751;51.380;10.326;2024-01-30T07:13:47;5.00;94.50
59881;DHT22;45751;51.380;10.326;2024-01-30T07:16:14;5.00;93.90
59881;DHT22;45751;51.380;10.326;2024-01-30T07:18:39;5.10;93.50
59881;DHT22;45751;51.380;10.326;2024-01-30T07:21:05;4.90;93.50
59881;DHT22;45751;51.380;10.326;2024-01-30T07:23:31;4.90;93.40
59881;DHT22;45751;51.380;10.326;2024-01-30T07:25:56;4.90;93.40
59881;DHT22;45751;51.380;10.326;2024-01-30T07:28:22;4.80;93.50
59881;DHT22;45751;51.380;10.326;2024-01-30T07:30:48;4.80;93.50
59881;DHT22;45751;51.380;10.326;2024-01-30T07:33:14;4.80;93.60
59881;DHT22;45751;51.380;10.326;2024-01-30T07:35:40;4.70;93.70
59881;DHT22;45751;51.380;10.326;2024-01-30T07:38:05;4.70;93.80
59881;DHT22;45751;51.380;10.326;2024-01-30T07:40:32;4.70;94.00
59881;DHT22;45751;51.380;10.326;2024-01-30T07:42:59;4.60;94.10
59881;DHT22;45751;51.380;10.326;2024-01-30T07:45:25;4.60;94.30
59881;DHT22;45751;51.380;10.326;2024-01-30T07:47:53;4.60;94.70
59881;DHT22;45751;51.380;10.326;2024-01-30T07:50:18;4.50;94.80
59881;DHT22;45751;51.380;10.326;2024-01-30T07:52:44;4.60;95.30
59881;DHT22;45751;51.380;10.326;2024-01-30T07:55:10;4.60;95.40
59881;DHT22;45751;51.380;10.326;2024-01-30T07:57:38;4.70;95.20
59881;DHT22;45751;51.380;10.326;2024-01-30T08:00:05;4.70;95.20
59881;DHT22;45751;51.380;10.326;2024-01-30T08:02:32;4.70;95.30
59881;DHT22;45751;51.380;10.326;2024-01-30T08:04:58;4.70;95.90
59881;DHT22;45751;51.380;10.326;2024-01-30T08:07:24;4.70;95.40
59881;DHT22;45751;51.380;10.326;2024-01-30T08:09:50;4.80;95.50
59881;DHT22;45751;51.380;10.326;2024-01-30T08:12:16;4.80;95.70
59881;DHT22;45751;51.380;10.326;2024-01-30T08:14:41;4.80;95.80
59881;DHT22;45751;51.380;10.326;2024-01-30T08:17:07;4.90;95.80
59881;DHT22;45751;51.380;10.326;2024-01-30T08:19:33;4.90;95.80
59881;DHT22;45751;51.380;10.326;2024-01-30T08:21:59;4.90;95.80
59881;DHT22;45751;51.380;10.326;2024-01-30T08:24:25;5.00;95.60
59881;DHT22;45751;51.380;10.326;2024-01-30T08:26:51;5.10;95.50
59881;DHT22;45751;51.380;10.326;2024-01-30T08:29:16;5.10;95.30
59881;DHT22;45751;51.380;10.326;2024-01-30T08:31:42;5.10;95.10
59881;DHT22;45751;51.380;10.326;2024-01-30T08:34:08;5.20;95.10
59881;DHT22;45751;51.380;10.326;2024-01-30T08:36:34;5.20;95.00
59881;DHT22;45751;51.380;10.326;2024-01-30T08:38:59;5.20;94.90
59881;DHT22;45751;51.380;10.326;2024-01-30T08:41:25;5.20;94.90
59881;DHT22;45751;51.380;10.326;2024-01-30T08:43:52;5.30;94.80
59881;DHT22;45751;51.380;10.326;2024-01-30T08:46:18;5.30;94.80
59881;DHT22;45751;51.380;10.326;2024-01-30T08:48:44;5.20;94.80
59881;DHT22;45751;51.380;10.326;2024-01-30T08:51:10;5.40;94.90
59881;DHT22;45751;51.380;10.326;2024-01-30T08:53:36;5.40;95.10
59881;DHT22;45751;51.380;10.326;2024-01-30T08:56:03;5.40;95.20
59881;DHT22;45751;51.380;10.326;2024-01-30T08:58:29;5.40;95.20
59881;DHT22;45751;51.380;10.326;2024-01-30T09:00:55;5.50;95.30
59881;DHT22;45751;51.380;10.326;2024-01-30T09:03:20;5.60;95.30
59881;DHT22;45751;51.380;10.326;2024-01-30T09:05:46;5.60;95.20
59881;DHT22;45751;51.380;10.326;2024-01-30T09:08:12;5.60;95.30
59881;DHT22;45751;51.380;10.326;2024-01-30T09:10:38;5.60;95.40
59881;DHT22;45751;51.380;10.326;2024-01-30T09:13:03;5.70;95.40
59881;DHT22;45751;51.380;10.326;2024-01-30T09:15:29;5.70;95.40
59881;DHT22;45751;51.380;10.326;2024-01-30T09:17:55;5.80;95.50
59881;DHT22;45751;51.380;10.326;2024-01-30T09:20:21;5.80;95.50
59881;DHT22;45751;51.380;10.326;2024-01-30T09:22:48;5.80;95.50
59881;DHT22;45751;51.380;10.326;2024-01-30T09:25:14;5.80;95.40
59881;DHT22;45751;51.380;10.326;2024-01-30T09:27:40;5.90;95.50
59881;DHT22;45751;51.380;10.326;2024-01-30T09:30:06;5.90;95.50
59881;DHT22;45751;51.380;10.326;2024-01-30T09:32:32;6.00;95.40
59881;DHT22;45751;51.380;10.326;2024-01-30T09:34:58;6.00;95.40
59881;DHT22;45751;51.380;10.326;2024-01-30T09:37:24;6.00;95.40
59881;DHT22;45751;51.380;10.326;2024-01-30T09:39:50;6.10;95.50
59881;DHT22;45751;51.380;10.326;2024-01-30T09:42:35;6.10;95.50
59881;DHT22;45751;51.380;10.326;2024-01-30T09:45:02;6.10;95.60
59881;DHT22;45751;51.380;10.326;2024-01-30T09:47:32;6.10;95.60
59881;DHT22;45751;51.380;10.326;2024-01-30T09:49:58;6.20;95.60
59881;DHT22;45751;51.380;10.326;2024-01-30T09:52:24;6.20;95.70
59881;DHT22;45751;51.380;10.326;2024-01-30T09:54:51;6.20;95.60
59881;DHT22;45751;51.380;10.326;2024-01-30T09:57:17;6.20;95.60
59881;DHT22;45751;51.380;10.326;2024-01-30T09:59:43;6.40;95.60
59881;DHT22;45751;51.380;10.326;2024-01-30T10:02:10;6.30;95.70
59881;DHT22;45751;51.380;10.326;2024-01-30T10:04:35;6.40;95.80
59881;DHT22;45751;51.380;10.326;2024-01-30T10:07:04;6.40;95.70
59881;DHT22;45751;51.380;10.326;2024-01-30T10:09:33;6.50;95.70
59881;DHT22;45751;51.380;10.326;2024-01-30T10:12:00;6.50;95.70
59881;DHT22;45751;51.380;10.326;2024-01-30T10:14:26;6.60;95.60
59881;DHT22;45751;51.380;10.326;2024-01-30T10:16:52;6.50;95.50
59881;DHT22;45751;51.380;10.326;2024-01-30T10:19:18;6.60;95.40
59881;DHT22;45751;51.380;10.326;2024-01-30T10:21:44;6.70;95.30
59881;DHT22;45751;51.380;10.326;2024-01-30T10:24:11;6.60;95.20
59881;DHT22;45751;51.380;10.326;2024-01-30T10:26:39;6.60;95.10
59881;DHT22;45751;51.380;10.326;2024-01-30T10:29:05;6.70;95.00
59881;DHT22;45751;51.380;10.326;2024-01-30T10:31:31;6.70;95.20
59881;DHT22;45751;51.380;10.326;2024-01-30T10:33:57;6.70;95.20
59881;DHT22;45751;51.380;10.326;2024-01-30T10:36:30;6.80;95.30
59881;DHT22;45751;51.380;10.326;2024-01-30T10:38:59;6.80;95.20
59881;DHT22;45751;51.380;10.326;2024-01-30T10:41:31;6.90;95.10
59881;DHT22;45751;51.380;10.326;2024-01-30T10:44:08;6.90;95.10
59881;DHT22;45751;51.380;10.326;2024-01-30T10:46:38;6.90;95.60
59881;DHT22;45751;51.380;10.326;2024-01-30T10:49:04;7.00;95.10
59881;DHT22;45751;51.380;10.326;2024-01-30T10:51:32;7.00;95.00
59881;DHT22;45751;51.380;10.326;2024-01-30T10:53:58;7.00;94.90
59881;DHT22;45751;51.380;10.326;2024-01-30T10:56:24;7.00;94.90
59881;DHT22;45751;51.380;10.326;2024-01-30T10:58:51;7.10;95.40
59881;DHT22;45751;51.380;10.326;2024-01-30T11:01:22;7.10;95.30
59881;DHT22;45751;51.380;10.326;2024-01-30T11:03:52;7.10;94.90
59881;DHT22;45751;51.380;10.326;2024-01-30T11:06:22;7.10;94.70
59881;DHT22;45751;51.380;10.326;2024-01-30T11:09:05;7.20;94.70
59881;DHT22;45751;51.380;10.326;2024-01-30T11:11:57;7.30;94.70
59881;DHT22;45751;51.380;10.326;2024-01-30T11:14:28;7.30;94.90
59881;DHT22;45751;51.380;10.326;2024-01-30T11:16:57;7.30;94.80
59881;DHT22;45751;51.380;10.326;2024-01-30T11:19:24;7.30;94.40
59881;DHT22;45751;51.380;10.326;2024-01-30T11:21:54;7.30;94.40
59881;DHT22;45751;51.380;10.326;2024-01-30T11:24:22;7.40;94.50
59881;DHT22;45751;51.380;10.326;2024-01-30T11:26:49;7.40;94.80
59881;DHT22;45751;51.380;10.326;2024-01-30T11:29:17;7.40;94.30
59881;DHT22;45751;51.380;10.326;2024-01-30T11:31:57;7.50;94.30
59881;DHT22;45751;51.380;10.326;2024-01-30T11:34:23;7.60;94.10
59881;DHT22;45751;51.380;10.326;2024-01-30T11:36:55;7.40;93.80
59881;DHT22;45751;51.380;10.326;2024-01-30T11:39:39;7.40;93.80
59881;DHT22;45751;51.380;10.326;2024-01-30T11:42:07;7.50;93.70
59881;DHT22;45751;51.380;10.326;2024-01-30T11:44:34;7.50;93.60
59881;DHT22;45751;51.380;10.326;2024-01-30T11:47:00;7.50;93.60
59881;DHT22;45751;51.380;10.326;2024-01-30T11:49:25;7.50;93.80
59881;DHT22;45751;51.380;10.326;2024-01-30T11:51:52;7.50;93.80
59881;DHT22;45751;51.380;10.326;2024-01-30T11:54:19;7.30;93.80
59881;DHT22;45751;51.380;10.326;2024-01-30T11:56:45;7.50;93.80
59881;DHT22;45751;51.380;10.326;2024-01-30T11:59:10;7.50;93.80
59881;DHT22;45751;51.380;10.326;2024-01-30T12:01:36;7.40;93.70
59881;DHT22;45751;51.380;10.326;2024-01-30T12:04:02;7.60;93.70
59881;DHT22;45751;51.380;10.326;2024-01-30T12:06:28;7.60;93.70
59881;DHT22;45751;51.380;10.326;2024-01-30T12:08:58;7.60;93.60
59881;DHT22;45751;51.380;10.326;2024-01-30T12:11:25;7.60;93.60
59881;DHT22;45751;51.380;10.326;2024-01-30T12:13:52;7.60;93.50
59881;DHT22;45751;51.380;10.326;2024-01-30T12:16:18;7.50;93.30
59881;DHT22;45751;51.380;10.326;2024-01-30T12:18:44;7.60;93.30
59881;DHT22;45751;51.380;10.326;2024-01-30T12:21:10;7.60;93.30
59881;DHT22;45751;51.380;10.326;2024-01-30T12:23:35;7.60;93.30
59881;DHT22;45751;51.380;10.326;2024-01-30T12:26:02;7.60;93.50
59881;DHT22;45751;51.380;10.326;2024-01-30T12:28:29;7.60;93.40
59881;DHT22;45751;51.380;10.326;2024-01-30T12:31:05;7.60;93.50
59881;DHT22;45751;51.380;10.326;2024-01-30T12:33:31;7.60;93.60
59881;DHT22;45751;51.380;10.326;2024-01-30T12:35:57;7.70;93.50
59881;DHT22;45751;51.380;10.326;2024-01-30T12:38:27;7.70;93.40
59881;DHT22;45751;51.380;10.326;2024-01-30T12:40:56;7.70;93.40
59881;DHT22;45751;51.380;10.326;2024-01-30T12:43:25;7.60;93.30
59881;DHT22;45751;51.380;10.326;2024-01-30T12:45:52;7.70;93.30
59881;DHT22;45751;51.380;10.326;2024-01-30T12:48:18;7.70;93.30
59881;DHT22;45751;51.380;10.326;2024-01-30T12:50:44;7.80;93.20
59881;DHT22;45751;51.380;10.326;2024-01-30T12:53:10;7.70;93.20
59881;DHT22;45751;51.380;10.326;2024-01-30T12:55:35;7.70;93.20
59881;DHT22;45751;51.380;10.326;2024-01-30T12:58:01;7.70;93.20
59881;DHT22;45751;51.380;10.326;2024-01-30T13:00:27;7.70;92.90
59881;DHT22;45751;51.380;10.326;2024-01-30T13:02:53;7.70;92.80
59881;DHT22;45751;51.380;10.326;2024-01-30T13:05:18;7.70;92.80
59881;DHT22;45751;51.380;10.326;2024-01-30T13:07:45;7.70;92.70
59881;DHT22;45751;51.380;10.326;2024-01-30T13:10:10;7.70;92.70
59881;DHT22;45751;51.380;10.326;2024-01-30T13:12:36;7.70;92.90
59881;DHT22;45751;51.380;10.326;2024-01-30T13:15:04;7.70;92.90
59881;DHT22;45751;51.380;10.326;2024-01-30T13:17:31;7.70;93.00
59881;DHT22;45751;51.380;10.326;2024-01-30T13:19:57;7.80;93.10
59881;DHT22;45751;51.380;10.326;2024-01-30T13:22:23;7.80;93.30
59881;DHT22;45751;51.380;10.326;2024-01-30T13:24:50;7.90;93.30
59881;DHT22;45751;51.380;10.326;2024-01-30T13:27:16;7.80;93.40
59881;DHT22;45751;51.380;10.326;2024-01-30T13:29:42;7.90;93.50
59881;DHT22;45751;51.380;10.326;2024-01-30T13:32:08;7.90;93.50
59881;DHT22;45751;51.380;10.326;2024-01-30T13:34:33;7.90;93.50
59881;DHT22;45751;51.380;10.326;2024-01-30T13:36:59;7.90;93.60
59881;DHT22;45751;51.380;10.326;2024-01-30T13:39:25;7.90;93.60
59881;DHT22;45751;51.380;10.326;2024-01-30T13:41:51;7.90;93.60
59881;DHT22;45751;51.380;10.326;2024-01-30T13:44:16;7.90;93.60
59881;DHT22;45751;51.380;10.326;2024-01-30T13:46:43;7.90;93.70
59881;DHT22;45751;51.380;10.326;2024-01-30T13:49:09;7.90;93.80
59881;DHT22;45751;51.380;10.326;2024-01-30T13:51:35;7.90;93.90
59881;DHT22;45751;51.380;10.326;2024-01-30T13:54:00;8.00;94.00
59881;DHT22;45751;51.380;10.326;2024-01-30T13:56:26;8.00;94.00
59881;DHT22;45751;51.380;10.326;2024-01-30T13:58:52;8.00;94.00
59881;DHT22;45751;51.380;10.326;2024-01-30T14:01:18;8.10;94.00
59881;DHT22;45751;51.380;10.326;2024-01-30T14:03:45;8.00;94.00
59881;DHT22;45751;51.380;10.326;2024-01-30T14:06:11;8.00;94.10
59881;DHT22;45751;51.380;10.326;2024-01-30T14:08:37;8.00;94.20
59881;DHT22;45751;51.380;10.326;2024-01-30T14:11:03;8.10;94.30
59881;DHT22;45751;51.380;10.326;2024-01-30T14:13:29;8.00;94.30
59881;DHT22;45751;51.380;10.326;2024-01-30T14:15:56;8.00;94.30
59881;DHT22;45751;51.380;10.326;2024-01-30T14:18:22;8.00;94.40
59881;DHT22;45751;51.380;10.326;2024-01-30T14:20:48;8.00;94.40
59881;DHT22;45751;51.380;10.326;2024-01-30T14:23:14;8.00;94.60
59881;DHT22;45751;51.380;10.326;2024-01-30T14:25:40;8.00;94.60
59881;DHT22;45751;51.380;10.326;2024-01-30T14:28:06;8.00;94.70
59881;DHT22;45751;51.380;10.326;2024-01-30T14:30:31;8.00;94.80
59881;DHT22;45751;51.380;10.326;2024-01-30T14:32:57;8.10;94.80
59881;DHT22;45751;51.380;10.326;2024-01-30T14:35:23;8.10;94.90
59881;DHT22;45751;51.380;10.326;2024-01-30T14:37:49;8.10;94.90
59881;DHT22;45751;51.380;10.326;2024-01-30T14:40:14;8.10;94.90
59881;DHT22;45751;51.380;10.326;2024-01-30T14:42:40;8.10;95.10
59881;DHT22;45751;51.380;10.326;2024-01-30T14:45:06;8.10;95.10
59881;DHT22;45751;51.380;10.326;2024-01-30T14:47:32;8.10;95.10
59881;DHT22;45751;51.380;10.326;2024-01-30T14:49:58;8.10;95.10
59881;DHT22;45751;51.380;10.326;2024-01-30T14:52:24;8.10;95.20
59881;DHT22;45751;51.380;10.326;2024-01-30T14:54:50;8.10;95.30
59881;DHT22;45751;51.380;10.326;2024-01-30T14:57:15;8.10;95.50
59881;DHT22;45751;51.380;10.326;2024-01-30T14:59:42;8.10;95.60
59881;DHT22;45751;51.380;10.326;2024-01-30T15:02:07;8.10;95.60
59881;DHT22;45751;51.380;10.326;2024-01-30T15:04:33;8.10;95.50
59881;DHT22;45751;51.380;10.326;2024-01-30T15:06:59;8.10;95.50
59881;DHT22;45751;51.380;10.326;2024-01-30T15:09:25;8.00;95.50
59881;DHT22;45751;51.380;10.326;2024-01-30T15:11:52;8.10;95.50
59881;DHT22;45751;51.380;10.326;2024-01-30T15:14:18;8.00;95.40
59881;DHT22;45751;51.380;10.326;2024-01-30T15:16:44;8.10;95.40
59881;DHT22;45751;51.380;10.326;2024-01-30T15:19:10;8.10;95.30
59881;DHT22;45751;51.380;10.326;2024-01-30T15:21:35;8.00;95.40
59881;DHT22;45751;51.380;10.326;2024-01-30T15:24:02;8.10;95.60